Terminal Aerodrome Forecast
Issued by NWS

Home | Current Version | Previous Version | Text Only | Print | Product List | Glossary On
Versions: 1 2 3 4 5 6 7 8 9 10 11 12 13 14 15 16
000
FTUS43 KJKL 212337
TAFSME
TAF
KSME 212337Z 2200/2224 VRB05KT P6SM VCSH OVC050
      TEMPO 2200/2204 4SM -SHRA OVC025
     FM220400 VRB04KT 3SM SHRA OVC008
     FM220900 VRB04KT 2SM SHRA OVC008 WS020/21030KT
     FM222000 24009KT 5SM -SHRA OVC008=

USA.gov is the U.S. government's official web portal to all federal, state and local government web resources and services.